sensor_id;sensor_type;location;lat;lon;timestamp;pressure;altitude;pressure_sealevel;temperature;humidity
54455;BME280;40364;52.270;10.546;2023-05-22T00:00:26;100592.31;;;24.60;61.25
54455;BME280;40364;52.270;10.546;2023-05-22T00:02:53;100582.97;;;24.40;62.09
54455;BME280;40364;52.270;10.546;2023-05-22T00:05:21;100582.13;;;24.19;62.56
54455;BME280;40364;52.270;10.546;2023-05-22T00:07:48;100577.28;;;24.16;62.51
54455;BME280;40364;52.270;10.546;2023-05-22T00:10:14;100583.44;;;24.15;63.37
54455;BME280;40364;52.270;10.546;2023-05-22T00:12:41;100576.63;;;24.32;62.30
54455;BME280;40364;52.270;10.546;2023-05-22T00:15:08;100582.59;;;24.38;61.42
54455;BME280;40364;52.270;10.546;2023-05-22T00:17:37;100583.28;;;24.22;62.18
54455;BME280;40364;52.270;10.546;2023-05-22T00:20:04;100580.00;;;24.24;62.30
54455;BME280;40364;52.270;10.546;2023-05-22T00:22:35;100583.66;;;24.24;61.62
54455;BME280;40364;52.270;10.546;2023-05-22T00:25:02;100575.78;;;24.12;62.09
54455;BME280;40364;52.270;10.546;2023-05-22T00:27:29;100581.31;;;24.19;61.30
54455;BME280;40364;52.270;10.546;2023-05-22T00:29:57;100579.19;;;24.23;61.45
54455;BME280;40364;52.270;10.546;2023-05-22T00:32:24;100575.81;;;24.32;61.04
54455;BME280;40364;52.270;10.546;2023-05-22T00:34:53;100583.91;;;24.33;61.52
54455;BME280;40364;52.270;10.546;2023-05-22T00:37:19;100579.28;;;24.19;61.71
54455;BME280;40364;52.270;10.546;2023-05-22T00:39:46;100581.69;;;24.21;61.51
54455;BME280;40364;52.270;10.546;2023-05-22T00:42:13;100578.69;;;24.08;63.14
54455;BME280;40364;52.270;10.546;2023-05-22T00:44:40;100576.41;;;24.00;63.17
54455;BME280;40364;52.270;10.546;2023-05-22T00:47:07;100579.44;;;23.89;64.02
54455;BME280;40364;52.270;10.546;2023-05-22T00:49:33;100578.31;;;24.06;63.46
54455;BME280;40364;52.270;10.546;2023-05-22T00:52:01;100587.41;;;23.98;64.32
54455;BME280;40364;52.270;10.546;2023-05-22T00:54:29;100581.34;;;23.96;63.54
54455;BME280;40364;52.270;10.546;2023-05-22T00:56:56;100580.22;;;24.13;63.08
54455;BME280;40364;52.270;10.546;2023-05-22T00:59:24;100583.22;;;24.06;63.25
54455;BME280;40364;52.270;10.546;2023-05-22T01:01:51;100584.97;;;24.19;62.41
54455;BME280;40364;52.270;10.546;2023-05-22T01:04:18;100574.31;;;24.24;61.51
54455;BME280;40364;52.270;10.546;2023-05-22T01:06:45;100574.28;;;24.27;60.90
54455;BME280;40364;52.270;10.546;2023-05-22T01:09:13;100567.81;;;24.23;60.78
54455;BME280;40364;52.270;10.546;2023-05-22T01:11:46;100572.78;;;24.19;61.88
54455;BME280;40364;52.270;10.546;2023-05-22T01:14:22;100574.28;;;24.27;60.91
54455;BME280;40364;52.270;10.546;2023-05-22T01:16:53;100576.50;;;24.16;61.80
54455;BME280;40364;52.270;10.546;2023-05-22T01:19:42;100579.19;;;24.23;60.61
54455;BME280;40364;52.270;10.546;2023-05-22T01:22:25;100576.84;;;24.18;61.18
54455;BME280;40364;52.270;10.546;2023-05-22T01:25:11;100579.50;;;24.09;61.56
54455;BME280;40364;52.270;10.546;2023-05-22T01:30:43;100568.19;;;24.05;61.75
54455;BME280;40364;52.270;10.546;2023-05-22T01:33:13;100565.94;;;23.73;63.57
54455;BME280;40364;52.270;10.546;2023-05-22T01:35:44;100573.22;;;23.74;62.66
54455;BME280;40364;52.270;10.546;2023-05-22T01:38:12;100571.38;;;23.64;62.96
54455;BME280;40364;52.270;10.546;2023-05-22T01:40:39;100574.09;;;23.71;62.68
54455;BME280;40364;52.270;10.546;2023-05-22T01:43:06;100567.97;;;23.73;63.32
54455;BME280;40364;52.270;10.546;2023-05-22T01:45:33;100574.47;;;23.73;62.62
54455;BME280;40364;52.270;10.546;2023-05-22T01:48:01;100570.81;;;23.73;62.37
54455;BME280;40364;52.270;10.546;2023-05-22T01:50:28;100564.19;;;23.56;63.06
54455;BME280;40364;52.270;10.546;2023-05-22T01:52:59;100572.91;;;23.69;61.71
54455;BME280;40364;52.270;10.546;2023-05-22T01:55:31;100564.81;;;23.67;62.03
54455;BME280;40364;52.270;10.546;2023-05-22T01:58:07;100575.56;;;23.56;62.00
54455;BME280;40364;52.270;10.546;2023-05-22T02:00:38;100566.50;;;23.38;64.50
54455;BME280;40364;52.270;10.546;2023-05-22T02:03:13;100562.31;;;23.46;64.43
54455;BME280;40364;52.270;10.546;2023-05-22T02:05:42;100571.28;;;23.44;63.61
54455;BME280;40364;52.270;10.546;2023-05-22T02:08:12;100552.69;;;23.40;63.38
54455;BME280;40364;52.270;10.546;2023-05-22T02:10:40;100559.84;;;23.48;63.21
54455;BME280;40364;52.270;10.546;2023-05-22T02:13:08;100551.44;;;23.41;62.88
54455;BME280;40364;52.270;10.546;2023-05-22T02:15:35;100546.50;;;23.45;62.85
54455;BME280;40364;52.270;10.546;2023-05-22T02:18:02;100544.03;;;23.47;63.31
54455;BME280;40364;52.270;10.546;2023-05-22T02:20:30;100544.09;;;23.43;63.12
54455;BME280;40364;52.270;10.546;2023-05-22T02:22:57;100538.84;;;23.42;63.38
54455;BME280;40364;52.270;10.546;2023-05-22T02:25:23;100539.69;;;23.39;62.35
54455;BME280;40364;52.270;10.546;2023-05-22T02:27:50;100540.19;;;23.34;60.05
54455;BME280;40364;52.270;10.546;2023-05-22T02:30:17;100533.69;;;23.33;59.40
54455;BME280;40364;52.270;10.546;2023-05-22T02:32:43;100527.31;;;23.26;58.92
54455;BME280;40364;52.270;10.546;2023-05-22T02:35:10;100532.41;;;23.38;60.33
54455;BME280;40364;52.270;10.546;2023-05-22T02:37:38;100526.25;;;23.43;60.91
54455;BME280;40364;52.270;10.546;2023-05-22T02:40:06;100525.50;;;23.39;59.32
54455;BME280;40364;52.270;10.546;2023-05-22T02:42:33;100527.31;;;23.26;59.50
54455;BME280;40364;52.270;10.546;2023-05-22T02:45:00;100524.56;;;23.22;59.97
54455;BME280;40364;52.270;10.546;2023-05-22T02:47:27;100521.47;;;23.13;59.18
54455;BME280;40364;52.270;10.546;2023-05-22T02:49:53;100532.78;;;23.16;57.53
54455;BME280;40364;52.270;10.546;2023-05-22T02:52:22;100536.38;;;23.21;59.05
54455;BME280;40364;52.270;10.546;2023-05-22T02:54:50;100543.66;;;23.22;57.77
54455;BME280;40364;52.270;10.546;2023-05-22T02:57:16;100540.19;;;23.10;58.79
54455;BME280;40364;52.270;10.546;2023-05-22T02:59:43;100538.88;;;23.15;56.45
54455;BME280;40364;52.270;10.546;2023-05-22T03:02:10;100532.88;;;23.09;56.37
54455;BME280;40364;52.270;10.546;2023-05-22T03:04:38;100530.91;;;23.06;57.75
54455;BME280;40364;52.270;10.546;2023-05-22T03:07:05;100536.00;;;23.18;57.14
54455;BME280;40364;52.270;10.546;2023-05-22T03:09:32;100536.09;;;23.11;57.54
54455;BME280;40364;52.270;10.546;2023-05-22T03:12:00;100532.41;;;23.14;57.24
54455;BME280;40364;52.270;10.546;2023-05-22T03:14:27;100530.94;;;23.03;57.41
54455;BME280;40364;52.270;10.546;2023-05-22T03:16:54;100523.47;;;22.89;58.10
54455;BME280;40364;52.270;10.546;2023-05-22T03:19:21;100530.94;;;23.03;57.56
54455;BME280;40364;52.270;10.546;2023-05-22T03:21:48;100527.22;;;22.82;59.22
54455;BME280;40364;52.270;10.546;2023-05-22T03:24:15;100530.09;;;22.79;59.42
54455;BME280;40364;52.270;10.546;2023-05-22T03:26:42;100524.44;;;22.75;59.88
54455;BME280;40364;52.270;10.546;2023-05-22T03:29:10;100521.81;;;22.92;59.72
54455;BME280;40364;52.270;10.546;2023-05-22T03:31:37;100522.63;;;22.92;59.72
54455;BME280;40364;52.270;10.546;2023-05-22T03:34:03;100524.81;;;22.81;59.99
54455;BME280;40364;52.270;10.546;2023-05-22T03:36:31;100521.28;;;22.70;60.20
54455;BME280;40364;52.270;10.546;2023-05-22T03:38:59;100518.66;;;22.86;60.94
54455;BME280;40364;52.270;10.546;2023-05-22T03:41:26;100527.03;;;22.93;60.36
54455;BME280;40364;52.270;10.546;2023-05-22T03:43:52;100525.31;;;22.99;60.87
54455;BME280;40364;52.270;10.546;2023-05-22T03:46:20;100525.97;;;23.10;60.16
54455;BME280;40364;52.270;10.546;2023-05-22T03:48:47;100519.56;;;22.76;60.35
54455;BME280;40364;52.270;10.546;2023-05-22T03:51:14;100521.22;;;22.73;60.25
54455;BME280;40364;52.270;10.546;2023-05-22T03:53:41;100516.72;;;22.76;60.88
54455;BME280;40364;52.270;10.546;2023-05-22T03:56:07;100518.28;;;22.84;60.45
54455;BME280;40364;52.270;10.546;2023-05-22T03:58:34;100515.97;;;22.72;61.27
54455;BME280;40364;52.270;10.546;2023-05-22T04:01:00;100518.81;;;22.72;61.66
54455;BME280;40364;52.270;10.546;2023-05-22T04:03:29;100511.03;;;22.79;62.22
54455;BME280;40364;52.270;10.546;2023-05-22T04:05:55;100513.50;;;22.74;62.22
54455;BME280;40364;52.270;10.546;2023-05-22T04:08:22;100510.63;;;22.77;61.67
54455;BME280;40364;52.270;10.546;2023-05-22T04:10:49;100521.03;;;23.14;58.69
54455;BME280;40364;52.270;10.546;2023-05-22T04:13:18;100507.28;;;22.86;61.20
54455;BME280;40364;52.270;10.546;2023-05-22T04:15:45;100515.50;;;22.77;61.00
54455;BME280;40364;52.270;10.546;2023-05-22T04:18:12;100514.75;;;22.73;61.20
54455;BME280;40364;52.270;10.546;2023-05-22T04:20:40;100517.72;;;23.20;60.35
54455;BME280;40364;52.270;10.546;2023-05-22T04:23:07;100519.31;;;22.94;59.99
54455;BME280;40364;52.270;10.546;2023-05-22T04:25:34;100516.97;;;23.15;58.84
54455;BME280;40364;52.270;10.546;2023-05-22T04:28:01;100520.13;;;23.21;59.51
54455;BME280;40364;52.270;10.546;2023-05-22T04:30:28;100514.00;;;23.23;59.72
54455;BME280;40364;52.270;10.546;2023-05-22T04:32:58;100517.81;;;23.12;59.70
54455;BME280;40364;52.270;10.546;2023-05-22T04:35:24;100515.63;;;23.47;58.42
54455;BME280;40364;52.270;10.546;2023-05-22T04:37:55;100519.44;;;23.60;58.26
54455;BME280;40364;52.270;10.546;2023-05-22T04:40:21;100517.72;;;23.66;57.82
54455;BME280;40364;52.270;10.546;2023-05-22T04:42:48;100520.06;;;23.71;57.50
54455;BME280;40364;52.270;10.546;2023-05-22T04:45:18;100520.19;;;23.64;57.65
54455;BME280;40364;52.270;10.546;2023-05-22T04:47:45;100521.91;;;23.81;57.29
54455;BME280;40364;52.270;10.546;2023-05-22T04:50:12;100525.63;;;23.78;57.44
54455;BME280;40364;52.270;10.546;2023-05-22T04:52:40;100526.56;;;23.92;57.52
54455;BME280;40364;52.270;10.546;2023-05-22T04:55:09;100532.56;;;24.17;56.67
54455;BME280;40364;52.270;10.546;2023-05-22T04:57:36;100532.94;;;24.19;55.72
54455;BME280;40364;52.270;10.546;2023-05-22T05:00:04;100530.56;;;24.37;54.83
54455;BME280;40364;52.270;10.546;2023-05-22T05:02:32;100528.59;;;24.34;54.26
54455;BME280;40364;52.270;10.546;2023-05-22T05:04:58;100533.56;;;24.30;54.78
54455;BME280;40364;52.270;10.546;2023-05-22T05:07:25;100521.72;;;24.12;54.95
54455;BME280;40364;52.270;10.546;2023-05-22T05:09:52;100522.03;;;24.37;55.09
54455;BME280;40364;52.270;10.546;2023-05-22T05:12:20;100518.22;;;25.94;48.97
54455;BME280;40364;52.270;10.546;2023-05-22T05:14:47;100514.56;;;26.89;45.60
54455;BME280;40364;52.270;10.546;2023-05-22T05:17:13;100510.53;;;27.37;45.22
54455;BME280;40364;52.270;10.546;2023-05-22T05:19:40;100507.06;;;27.90;43.58
54455;BME280;40364;52.270;10.546;2023-05-22T05:22:06;100514.38;;;28.25;42.71
54455;BME280;40364;52.270;10.546;2023-05-22T05:24:33;100518.31;;;28.40;42.22
54455;BME280;40364;52.270;10.546;2023-05-22T05:27:00;100517.91;;;28.29;43.08
54455;BME280;40364;52.270;10.546;2023-05-22T05:29:28;100517.06;;;29.12;42.24
54455;BME280;40364;52.270;10.546;2023-05-22T05:31:54;100519.16;;;28.81;41.35
54455;BME280;40364;52.270;10.546;2023-05-22T05:34:21;100517.72;;;29.16;39.65
54455;BME280;40364;52.270;10.546;2023-05-22T05:36:47;100515.44;;;26.48;46.02
54455;BME280;40364;52.270;10.546;2023-05-22T05:39:14;100520.84;;;26.97;44.78
54455;BME280;40364;52.270;10.546;2023-05-22T05:41:41;100512.75;;;27.21;43.67
54455;BME280;40364;52.270;10.546;2023-05-22T05:44:07;100516.81;;;25.69;48.15
54455;BME280;40364;52.270;10.546;2023-05-22T05:46:35;100519.47;;;28.08;43.77
54455;BME280;40364;52.270;10.546;2023-05-22T05:49:05;100513.50;;;26.58;46.46
54455;BME280;40364;52.270;10.546;2023-05-22T05:51:34;100516.41;;;29.08;41.53
54455;BME280;40364;52.270;10.546;2023-05-22T05:54:00;100505.41;;;29.56;39.62
54455;BME280;40364;52.270;10.546;2023-05-22T05:56:27;100519.22;;;28.90;40.15
54455;BME280;40364;52.270;10.546;2023-05-22T05:58:54;100509.22;;;30.54;37.46
54455;BME280;40364;52.270;10.546;2023-05-22T06:01:20;100514.03;;;30.38;37.25
54455;BME280;40364;52.270;10.546;2023-05-22T06:03:50;100515.00;;;29.80;38.54
54455;BME280;40364;52.270;10.546;2023-05-22T06:06:16;100517.06;;;29.98;38.21
54455;BME280;40364;52.270;10.546;2023-05-22T06:08:44;100515.66;;;30.03;38.51
54455;BME280;40364;52.270;10.546;2023-05-22T06:11:10;100516.31;;;30.07;37.86
54455;BME280;40364;52.270;10.546;2023-05-22T06:13:37;100514.06;;;29.83;38.12
54455;BME280;40364;52.270;10.546;2023-05-22T06:16:04;100511.75;;;30.61;37.85
54455;BME280;40364;52.270;10.546;2023-05-22T06:18:31;100517.53;;;29.97;38.22
54455;BME280;40364;52.270;10.546;2023-05-22T06:20:59;100509.75;;;30.15;39.18
54455;BME280;40364;52.270;10.546;2023-05-22T06:23:25;100516.91;;;30.57;36.65
54455;BME280;40364;52.270;10.546;2023-05-22T06:25:52;100509.19;;;30.72;36.46
54455;BME280;40364;52.270;10.546;2023-05-22T06:28:19;100516.88;;;30.47;36.74
54455;BME280;40364;52.270;10.546;2023-05-22T06:30:46;100512.09;;;30.54;36.32
54455;BME280;40364;52.270;10.546;2023-05-22T06:33:12;100512.94;;;29.99;37.71
54455;BME280;40364;52.270;10.546;2023-05-22T06:35:39;100512.38;;;30.65;36.17
54455;BME280;40364;52.270;10.546;2023-05-22T06:38:07;100517.88;;;30.96;36.74
54455;BME280;40364;52.270;10.546;2023-05-22T06:40:34;100511.19;;;30.20;37.62
54455;BME280;40364;52.270;10.546;2023-05-22T06:43:01;100516.28;;;30.95;36.84
54455;BME280;40364;52.270;10.546;2023-05-22T06:45:27;100519.13;;;30.43;37.33
54455;BME280;40364;52.270;10.546;2023-05-22T06:47:54;100516.41;;;32.05;35.17
54455;BME280;40364;52.270;10.546;2023-05-22T06:50:21;100510.00;;;31.86;34.86
54455;BME280;40364;52.270;10.546;2023-05-22T06:52:47;100519.59;;;29.10;38.25
54455;BME280;40364;52.270;10.546;2023-05-22T06:55:15;100519.75;;;30.47;36.51
54455;BME280;40364;52.270;10.546;2023-05-22T06:57:42;100524.88;;;29.12;38.39
54455;BME280;40364;52.270;10.546;2023-05-22T07:00:10;100520.81;;;26.30;44.74
54455;BME280;40364;52.270;10.546;2023-05-22T07:02:37;100523.41;;;26.40;45.18
54455;BME280;40364;52.270;10.546;2023-05-22T07:05:04;100520.28;;;28.53;40.46
54455;BME280;40364;52.270;10.546;2023-05-22T07:07:31;100521.56;;;27.13;44.53
54455;BME280;40364;52.270;10.546;2023-05-22T07:09:58;100520.84;;;27.22;44.55
54455;BME280;40364;52.270;10.546;2023-05-22T07:12:26;100525.66;;;26.87;45.43
54455;BME280;40364;52.270;10.546;2023-05-22T07:14:52;100531.59;;;26.80;45.76
54455;BME280;40364;52.270;10.546;2023-05-22T07:17:19;100524.72;;;27.28;44.71
54455;BME280;40364;52.270;10.546;2023-05-22T07:19:46;100518.47;;;26.95;46.18
54455;BME280;40364;52.270;10.546;2023-05-22T07:22:13;100526.25;;;27.07;44.36
54455;BME280;40364;52.270;10.546;2023-05-22T07:24:40;100524.47;;;27.61;44.83
54455;BME280;40364;52.270;10.546;2023-05-22T07:27:07;100518.22;;;30.89;37.51
54455;BME280;40364;52.270;10.546;2023-05-22T07:29:36;100525.81;;;28.78;40.78
54455;BME280;40364;52.270;10.546;2023-05-22T07:32:04;100523.22;;;27.49;42.64
54455;BME280;40364;52.270;10.546;2023-05-22T07:34:30;100516.66;;;27.96;42.69
54455;BME280;40364;52.270;10.546;2023-05-22T07:36:58;100517.53;;;26.86;44.30
54455;BME280;40364;52.270;10.546;2023-05-22T07:39:25;100508.28;;;27.79;42.42
54455;BME280;40364;52.270;10.546;2023-05-22T07:41:52;100507.16;;;27.17;43.55
54455;BME280;40364;52.270;10.546;2023-05-22T07:44:19;100511.72;;;27.02;44.29
54455;BME280;40364;52.270;10.546;2023-05-22T07:46:47;100515.47;;;28.06;43.30
54455;BME280;40364;52.270;10.546;2023-05-22T07:49:14;100510.09;;;28.08;43.82
54455;BME280;40364;52.270;10.546;2023-05-22T07:51:43;100511.25;;;28.32;43.07
54455;BME280;40364;52.270;10.546;2023-05-22T07:54:10;100519.75;;;28.23;43.51
54455;BME280;40364;52.270;10.546;2023-05-22T07:56:39;100509.59;;;27.88;43.92
54455;BME280;40364;52.270;10.546;2023-05-22T07:59:06;100509.16;;;28.11;43.63
54455;BME280;40364;52.270;10.546;2023-05-22T08:01:36;100510.97;;;28.39;43.95
54455;BME280;40364;52.270;10.546;2023-05-22T08:04:04;100509.47;;;28.13;43.68
54455;BME280;40364;52.270;10.546;2023-05-22T08:06:31;100508.09;;;27.61;44.66
54455;BME280;40364;52.270;10.546;2023-05-22T08:08:59;100504.16;;;27.80;43.84
54455;BME280;40364;52.270;10.546;2023-05-22T08:11:26;100508.00;;;28.52;43.15
54455;BME280;40364;52.270;10.546;2023-05-22T08:13:53;100506.94;;;28.15;43.59
54455;BME280;40364;52.270;10.546;2023-05-22T08:16:20;100510.22;;;28.48;43.51
54455;BME280;40364;52.270;10.546;2023-05-22T08:18:47;100510.75;;;28.56;43.37
54455;BME280;40364;52.270;10.546;2023-05-22T08:21:16;100503.38;;;28.24;43.44
54455;BME280;40364;52.270;10.546;2023-05-22T08:23:42;100517.22;;;28.47;43.54
54455;BME280;40364;52.270;10.546;2023-05-22T08:26:09;100508.28;;;28.45;43.26
54455;BME280;40364;52.270;10.546;2023-05-22T08:28:35;100503.75;;;28.57;43.27
54455;BME280;40364;52.270;10.546;2023-05-22T08:31:06;100504.59;;;28.35;44.07
54455;BME280;40364;52.270;10.546;2023-05-22T08:33:32;100500.91;;;28.35;44.50
54455;BME280;40364;52.270;10.546;2023-05-22T08:35:59;100507.56;;;28.85;44.16
54455;BME280;40364;52.270;10.546;2023-05-22T08:38:27;100501.53;;;28.61;43.68
54455;BME280;40364;52.270;10.546;2023-05-22T08:40:54;100499.88;;;29.12;43.95
54455;BME280;40364;52.270;10.546;2023-05-22T08:43:20;100496.47;;;28.65;44.07
54455;BME280;40364;52.270;10.546;2023-05-22T08:45:51;100501.28;;;28.77;43.52
54455;BME280;40364;52.270;10.546;2023-05-22T08:48:22;100493.81;;;28.79;43.52
54455;BME280;40364;52.270;10.546;2023-05-22T08:50:52;100487.50;;;29.34;42.33
54455;BME280;40364;52.270;10.546;2023-05-22T08:53:22;100492.69;;;29.08;42.93
54455;BME280;40364;52.270;10.546;2023-05-22T08:55:52;100491.66;;;29.33;41.92
54455;BME280;40364;52.270;10.546;2023-05-22T08:58:19;100483.19;;;29.38;42.44
54455;BME280;40364;52.270;10.546;2023-05-22T09:00:46;100482.78;;;29.95;42.14
54455;BME280;40364;52.270;10.546;2023-05-22T09:03:13;100488.22;;;29.93;43.08
54455;BME280;40364;52.270;10.546;2023-05-22T09:05:40;100478.72;;;29.37;42.18
54455;BME280;40364;52.270;10.546;2023-05-22T09:08:07;100477.81;;;29.49;42.59
54455;BME280;40364;52.270;10.546;2023-05-22T09:10:34;100472.88;;;29.41;42.57
54455;BME280;40364;52.270;10.546;2023-05-22T09:13:04;100472.59;;;29.57;42.79
54455;BME280;40364;52.270;10.546;2023-05-22T09:15:33;100473.97;;;28.85;43.04
54455;BME280;40364;52.270;10.546;2023-05-22T09:18:01;100464.28;;;29.68;42.20
54455;BME280;40364;52.270;10.546;2023-05-22T09:20:27;100460.56;;;29.31;42.60
54455;BME280;40364;52.270;10.546;2023-05-22T09:22:54;100467.78;;;29.54;42.84
54455;BME280;40364;52.270;10.546;2023-05-22T09:25:21;100459.28;;;30.33;42.71
54455;BME280;40364;52.270;10.546;2023-05-22T09:27:48;100462.06;;;30.09;42.50
54455;BME280;40364;52.270;10.546;2023-05-22T09:30:16;100463.00;;;30.24;41.88
54455;BME280;40364;52.270;10.546;2023-05-22T09:32:43;100457.06;;;30.28;41.03
54455;BME280;40364;52.270;10.546;2023-05-22T09:35:11;100454.69;;;30.26;41.50
54455;BME280;40364;52.270;10.546;2023-05-22T09:37:39;100457.34;;;30.90;42.54
54455;BME280;40364;52.270;10.546;2023-05-22T09:40:07;100458.31;;;30.36;41.41
54455;BME280;40364;52.270;10.546;2023-05-22T09:42:34;100449.38;;;30.34;42.02
54455;BME280;40364;52.270;10.546;2023-05-22T09:45:05;100455.41;;;30.96;40.77
54455;BME280;40364;52.270;10.546;2023-05-22T09:47:34;100446.88;;;30.18;41.28
54455;BME280;40364;52.270;10.546;2023-05-22T09:50:02;100455.94;;;30.34;41.35
54455;BME280;40364;52.270;10.546;2023-05-22T09:52:32;100445.78;;;30.06;41.40
54455;BME280;40364;52.270;10.546;2023-05-22T09:55:01;100456.69;;;30.53;41.93
54455;BME280;40364;52.270;10.546;2023-05-22T09:57:31;100456.34;;;30.60;41.74
54455;BME280;40364;52.270;10.546;2023-05-22T09:59:58;100453.63;;;30.66;41.43
54455;BME280;40364;52.270;10.546;2023-05-22T10:02:27;100448.94;;;30.77;41.48
54455;BME280;40364;52.270;10.546;2023-05-22T10:04:55;100453.13;;;30.16;42.75
54455;BME280;40364;52.270;10.546;2023-05-22T10:07:24;100457.97;;;30.52;41.67
54455;BME280;40364;52.270;10.546;2023-05-22T10:09:55;100458.06;;;30.76;41.12
54455;BME280;40364;52.270;10.546;2023-05-22T10:12:26;100458.81;;;30.86;41.52
54455;BME280;40364;52.270;10.546;2023-05-22T10:14:54;100444.50;;;30.07;42.35
54455;BME280;40364;52.270;10.546;2023-05-22T10:17:21;100450.16;;;30.53;42.17
54455;BME280;40364;52.270;10.546;2023-05-22T10:19:49;100452.81;;;30.65;41.67
54455;BME280;40364;52.270;10.546;2023-05-22T10:22:17;100438.53;;;30.38;41.46
54455;BME280;40364;52.270;10.546;2023-05-22T10:24:47;100434.91;;;30.19;41.66
54455;BME280;40364;52.270;10.546;2023-05-22T10:27:14;100433.50;;;30.05;41.86
54455;BME280;40364;52.270;10.546;2023-05-22T10:29:45;100424.06;;;30.65;41.90
54455;BME280;40364;52.270;10.546;2023-05-22T10:32:21;100429.06;;;31.22;41.54
54455;BME280;40364;52.270;10.546;2023-05-22T10:34:53;100420.91;;;31.20;40.82
54455;BME280;40364;52.270;10.546;2023-05-22T10:37:30;100426.50;;;32.01;39.04
54455;BME280;40364;52.270;10.546;2023-05-22T10:40:07;100426.09;;;31.55;37.72
54455;BME280;40364;52.270;10.546;2023-05-22T10:42:36;100431.72;;;31.01;38.32
54455;BME280;40364;52.270;10.546;2023-05-22T10:45:06;100422.19;;;31.19;38.82
54455;BME280;40364;52.270;10.546;2023-05-22T10:47:34;100431.75;;;31.25;37.19
54455;BME280;40364;52.270;10.546;2023-05-22T10:50:07;100420.06;;;31.29;37.50
54455;BME280;40364;52.270;10.546;2023-05-22T10:52:35;100421.63;;;31.77;37.01
54455;BME280;40364;52.270;10.546;2023-05-22T10:55:05;100414.91;;;32.10;36.57
54455;BME280;40364;52.270;10.546;2023-05-22T10:57:33;100427.75;;;32.88;36.05
54455;BME280;40364;52.270;10.546;2023-05-22T11:00:07;100431.25;;;32.92;35.16
54455;BME280;40364;52.270;10.546;2023-05-22T11:02:38;100414.47;;;32.61;34.98
54455;BME280;40364;52.270;10.546;2023-05-22T11:05:33;100418.66;;;32.16;36.21
54455;BME280;40364;52.270;10.546;2023-05-22T11:08:36;100414.53;;;33.17;34.77
54455;BME280;40364;52.270;10.546;2023-05-22T11:11:12;100410.44;;;32.38;35.97
54455;BME280;40364;52.270;10.546;2023-05-22T11:13:40;100416.59;;;32.31;35.50
54455;BME280;40364;52.270;10.546;2023-05-22T11:16:09;100406.91;;;33.34;35.20
54455;BME280;40364;52.270;10.546;2023-05-22T11:18:36;100411.13;;;33.18;34.51
54455;BME280;40364;52.270;10.546;2023-05-22T11:21:03;100405.16;;;33.22;34.79
54455;BME280;40364;52.270;10.546;2023-05-22T11:23:33;100398.13;;;34.78;33.29
54455;BME280;40364;52.270;10.546;2023-05-22T11:26:22;100408.75;;;38.05;28.89
54455;BME280;40364;52.270;10.546;2023-05-22T11:28:50;100415.31;;;38.82;27.44
54455;BME280;40364;52.270;10.546;2023-05-22T11:31:18;100405.00;;;37.63;28.32
54455;BME280;40364;52.270;10.546;2023-05-22T11:33:45;100399.91;;;35.66;29.93
54455;BME280;40364;52.270;10.546;2023-05-22T11:36:13;100394.47;;;36.07;30.26
54455;BME280;40364;52.270;10.546;2023-05-22T11:38:41;100392.31;;;35.21;30.81
54455;BME280;40364;52.270;10.546;2023-05-22T11:43:36;100385.72;;;34.72;31.66
54455;BME280;40364;52.270;10.546;2023-05-22T11:46:06;100384.50;;;34.21;32.19
54455;BME280;40364;52.270;10.546;2023-05-22T11:48:34;100388.00;;;33.33;33.26
54455;BME280;40364;52.270;10.546;2023-05-22T11:51:01;100382.59;;;36.89;28.97
54455;BME280;40364;52.270;10.546;2023-05-22T11:53:29;100395.84;;;34.93;30.94
54455;BME280;40364;52.270;10.546;2023-05-22T11:56:00;100388.69;;;36.41;29.60
54455;BME280;40364;52.270;10.546;2023-05-22T11:58:27;100388.31;;;35.07;30.43
54455;BME280;40364;52.270;10.546;2023-05-22T12:00:58;100380.47;;;35.84;30.06
54455;BME280;40364;52.270;10.546;2023-05-22T12:03:25;100379.09;;;37.24;28.57
54455;BME280;40364;52.270;10.546;2023-05-22T12:05:52;100388.94;;;36.76;28.83
54455;BME280;40364;52.270;10.546;2023-05-22T12:08:19;100380.84;;;37.44;28.42
54455;BME280;40364;52.270;10.546;2023-05-22T12:10:47;100365.94;;;38.05;27.03
54455;BME280;40364;52.270;10.546;2023-05-22T12:13:21;100367.75;;;38.74;26.31
54455;BME280;40364;52.270;10.546;2023-05-22T12:15:48;100370.75;;;39.36;26.41
54455;BME280;40364;52.270;10.546;2023-05-22T12:18:18;100364.69;;;39.53;25.21
54455;BME280;40364;52.270;10.546;2023-05-22T12:20:44;100370.88;;;39.25;25.80
54455;BME280;40364;52.270;10.546;2023-05-22T12:23:11;100359.13;;;39.92;24.47
54455;BME280;40364;52.270;10.546;2023-05-22T12:25:38;100354.97;;;38.53;25.23
54455;BME280;40364;52.270;10.546;2023-05-22T12:28:05;100348.97;;;37.80;26.23
54455;BME280;40364;52.270;10.546;2023-05-22T12:30:41;100350.06;;;39.15;25.25
54455;BME280;40364;52.270;10.546;2023-05-22T12:33:14;100355.34;;;37.72;26.78
54455;BME280;40364;52.270;10.546;2023-05-22T12:35:42;100353.13;;;37.90;25.96
54455;BME280;40364;52.270;10.546;2023-05-22T12:38:09;100346.47;;;38.55;26.37
54455;BME280;40364;52.270;10.546;2023-05-22T12:40:37;100349.28;;;39.15;25.13
54455;BME280;40364;52.270;10.546;2023-05-22T12:43:04;100343.31;;;38.53;26.22
54455;BME280;40364;52.270;10.546;2023-05-22T12:45:30;100345.97;;;36.41;28.00
54455;BME280;40364;52.270;10.546;2023-05-22T12:47:57;100341.97;;;35.72;29.33
54455;BME280;40364;52.270;10.546;2023-05-22T12:50:24;100342.50;;;36.82;28.06